createdAt,value
2022-08-04T13:22:23.566Z,38.85
2022-08-04T13:23:23.599Z,38.98
2022-08-04T13:26:43.532Z,38.90
2022-08-04T13:26:44.385Z,39.21
2022-08-04T13:27:24.120Z,39.18
2022-08-04T13:28:23.937Z,39.30
2022-08-04T13:29:57.891Z,39.10
2022-08-04T13:30:24.273Z,38.89
2022-08-04T13:30:25.742Z,38.87
2022-08-04T13:31:24.132Z,38.82
2022-08-04T13:32:24.232Z,38.71
2022-08-04T13:33:24.279Z,38.80
2022-08-04T13:34:24.344Z,38.86
2022-08-04T13:35:54.851Z,39.18
2022-08-04T13:36:24.475Z,39.42
2022-08-04T13:37:24.783Z,39.55
2022-08-04T13:38:24.616Z,39.78
2022-08-04T13:39:24.720Z,40.08
2022-08-04T13:40:24.774Z,39.99
2022-08-04T13:41:27.750Z,40.26
2022-08-04T13:42:24.882Z,40.04
2022-08-04T13:44:15.769Z,40.17
2022-08-04T13:44:25.016Z,39.61
2022-08-04T13:45:25.116Z,39.22
2022-08-04T13:46:27.069Z,39.14
2022-08-04T13:47:25.388Z,39.17
2022-08-04T13:48:32.145Z,39.18
2022-08-04T13:49:42.810Z,39.37
2022-08-04T13:50:25.463Z,39.78
2022-08-04T13:51:25.535Z,40.45
2022-08-04T13:52:25.577Z,40.27
2022-08-04T13:53:29.297Z,39.84
2022-08-04T13:54:25.708Z,39.59
2022-08-04T13:55:25.777Z,39.33
2022-08-04T13:56:25.874Z,39.17
2022-08-04T13:57:25.920Z,39.30
2022-08-04T13:58:25.993Z,39.76
2022-08-04T13:59:26.056Z,40.53
2022-08-04T14:00:30.109Z,40.56
2022-08-04T14:01:35.259Z,40.79
2022-08-04T14:02:26.264Z,41.03
2022-08-04T14:03:26.362Z,40.91
2022-08-04T14:04:26.402Z,40.69
2022-08-04T14:05:28.744Z,40.65
2022-08-04T14:06:26.545Z,40.72
2022-08-04T14:07:26.699Z,40.84
2022-08-04T14:08:26.708Z,40.68
2022-08-04T14:09:35.046Z,40.71
2022-08-04T14:10:26.825Z,40.56
2022-08-04T14:12:08.881Z,40.46
2022-08-04T14:12:45.103Z,39.77
2022-08-04T14:13:27.058Z,39.52
2022-08-04T14:14:27.102Z,39.47
2022-08-04T14:15:27.169Z,39.83
2022-08-04T14:16:27.243Z,40.18
2022-08-04T14:17:29.996Z,40.45
2022-08-04T14:18:27.607Z,40.36
2022-08-04T14:19:35.792Z,40.08
2022-08-04T14:20:27.518Z,40.49
2022-08-04T14:21:48.623Z,40.84
2022-08-04T14:22:27.665Z,40.42
2022-08-04T14:35:15.078Z,40.83
2022-08-04T14:36:04.511Z,41.05
2022-08-04T14:37:18.300Z,40.75
2022-08-04T14:38:03.576Z,40.91
2022-08-04T14:39:02.880Z,40.98
2022-08-04T14:40:17.621Z,41.06
2022-08-04T14:41:02.988Z,40.24
2022-08-04T14:42:03.042Z,40.33
2022-08-04T14:43:07.597Z,40.36
2022-08-04T14:44:03.196Z,40.64
2022-08-04T14:45:03.291Z,40.59
2022-08-04T14:46:03.323Z,40.49
2022-08-04T14:47:03.392Z,40.07
2022-08-04T14:48:03.463Z,40.46
2022-08-04T14:49:03.537Z,40.24
2022-08-04T14:50:03.631Z,40.50
2022-08-04T14:51:03.671Z,41.02
2022-08-04T14:52:03.776Z,41.15
2022-08-04T14:53:03.814Z,41.15
2022-08-04T14:54:07.925Z,41.05
2022-08-04T14:55:03.965Z,40.76
2022-08-04T14:56:04.024Z,41.08
2022-08-04T14:57:04.136Z,41.22
2022-08-04T14:58:36.109Z,40.83
2022-08-04T14:59:04.241Z,41.27
2022-08-04T15:00:10.197Z,41.20
2022-08-04T15:01:10.113Z,41.10
2022-08-04T15:02:04.557Z,40.81
2022-08-04T15:03:04.521Z,40.96
2022-08-04T15:04:04.591Z,41.06
2022-08-04T15:05:55.002Z,41.65
2022-08-04T15:06:10.887Z,40.83
2022-08-04T15:07:04.985Z,40.76
2022-08-04T15:08:04.880Z,40.79
2022-08-04T15:09:04.980Z,41.13
2022-08-04T15:10:05.020Z,40.93
2022-08-04T15:11:05.089Z,40.84
2022-08-04T15:12:05.157Z,41.21
2022-08-04T15:13:05.229Z,41.20
2022-08-04T15:16:14.185Z,39.35
2022-08-04T15:20:57.143Z,40.50
2022-08-04T15:21:47.291Z,40.71
2022-08-04T15:22:47.356Z,41.00
2022-08-04T15:23:47.597Z,41.49
2022-08-04T15:36:43.523Z,39.18
2022-08-04T15:37:43.600Z,39.22
2022-08-04T15:38:43.633Z,38.92
2022-08-04T15:39:43.698Z,39.25
2022-08-04T15:40:43.769Z,39.46
2022-08-04T16:35:49.331Z,34.73
2022-08-04T16:36:49.361Z,34.83
2022-08-04T16:37:49.422Z,34.73
2022-08-04T16:38:49.477Z,34.72
2022-08-04T16:39:51.486Z,34.60
2022-08-04T16:40:49.597Z,34.48
2022-08-04T16:41:49.657Z,34.24
2022-08-04T16:42:49.718Z,34.16
2022-08-04T16:43:49.780Z,34.07
2022-08-04T16:44:53.703Z,33.87
2022-08-04T16:45:49.902Z,33.92
2022-08-04T16:47:22.261Z,33.94
2022-08-04T16:47:50.012Z,33.79
2022-08-04T16:48:50.095Z,33.70
2022-08-04T16:49:51.899Z,33.63
2022-08-04T16:50:50.271Z,33.58
2022-08-04T16:51:50.249Z,33.48
2022-08-04T16:52:50.310Z,33.46
2022-08-04T16:54:02.845Z,33.43
2022-08-04T16:54:50.427Z,33.36
2022-08-04T16:55:50.523Z,33.36
2022-08-04T16:56:50.555Z,33.37
2022-08-04T16:57:50.608Z,33.30
2022-08-04T16:58:54.384Z,33.34
2022-08-04T16:59:50.723Z,33.29
2022-08-04T17:00:50.816Z,33.22
2022-08-04T17:01:50.890Z,33.19
2022-08-04T17:02:50.903Z,33.13
2022-08-04T17:03:56.187Z,33.17
2022-08-04T17:05:12.047Z,33.14
2022-08-04T17:05:51.102Z,33.11
2022-08-04T17:06:51.160Z,33.22
2022-08-04T17:08:07.087Z,33.17
2022-08-04T17:08:51.255Z,33.29
2022-08-04T17:09:51.316Z,33.27
2022-08-04T17:10:51.375Z,33.30
2022-08-04T17:11:51.458Z,33.15
2022-08-04T17:12:59.522Z,33.14
2022-08-04T17:14:03.722Z,33.14
2022-08-04T17:14:51.635Z,33.04
2022-08-04T17:15:51.665Z,33.13
2022-08-04T17:16:51.728Z,33.14
2022-08-04T17:18:01.464Z,33.08
2022-08-04T17:18:51.868Z,33.08
2022-08-04T17:19:51.961Z,33.11
2022-08-04T17:21:01.187Z,33.07
2022-08-04T17:21:52.018Z,33.06
2022-08-04T17:22:52.084Z,33.07
2022-08-04T17:24:13.338Z,33.07
2022-08-04T17:25:13.264Z,32.99
2022-08-04T17:25:52.781Z,33.03
2022-08-04T17:26:54.402Z,32.93
2022-08-04T17:28:08.750Z,32.86
2022-08-04T17:28:52.432Z,32.76
2022-08-04T17:29:52.605Z,32.70
2022-08-04T17:30:52.559Z,32.59
2022-08-04T17:31:53.516Z,32.69
2022-08-04T17:32:52.666Z,32.58
2022-08-04T17:33:54.797Z,32.48
2022-08-04T17:34:52.786Z,32.47
2022-08-04T17:35:52.836Z,32.42
2022-08-04T17:36:52.902Z,32.39
2022-08-04T17:37:53.645Z,32.36
2022-08-04T17:38:53.064Z,32.32
2022-08-04T17:39:53.216Z,32.25
2022-08-04T17:40:53.133Z,32.20
2022-08-04T17:41:53.189Z,32.03
2022-08-04T17:42:53.303Z,31.99
2022-08-04T17:44:03.468Z,31.93
2022-08-04T17:44:53.366Z,31.85
2022-08-04T17:45:56.853Z,31.85
2022-08-04T17:46:53.481Z,31.88
2022-08-04T17:47:53.560Z,31.85
2022-08-04T17:48:53.601Z,31.77
2022-08-04T17:49:53.656Z,31.80
2022-08-04T17:50:53.723Z,31.82
2022-08-04T17:52:05.297Z,31.80
2022-08-04T17:52:53.857Z,31.80
2022-08-04T17:54:02.529Z,31.75
2022-08-04T17:54:53.944Z,31.76
2022-08-04T17:55:54.002Z,31.84
2022-08-04T17:56:54.090Z,31.85
2022-08-04T17:57:54.118Z,31.84
2022-08-04T17:58:54.182Z,31.91
2022-08-04T17:59:56.771Z,31.77
2022-08-04T18:01:05.268Z,31.73
2022-08-04T18:01:54.382Z,31.75
2022-08-04T18:02:54.497Z,31.58
2022-08-04T18:03:54.486Z,31.61
2022-08-04T18:05:06.818Z,31.49
2022-08-04T18:06:03.240Z,31.49
2022-08-04T18:06:54.665Z,31.48
2022-08-04T18:08:34.653Z,31.48
2022-08-04T18:08:57.957Z,31.40
2022-08-04T18:10:02.260Z,31.43
2022-08-04T18:10:56.753Z,31.31
2022-08-04T18:11:54.956Z,31.30
2022-08-04T18:12:54.986Z,31.18
2022-08-04T18:13:57.128Z,31.21
2022-08-04T18:14:55.106Z,31.20
2022-08-04T18:15:55.161Z,31.12
2022-08-04T18:16:55.845Z,31.13
2022-08-04T18:18:21.330Z,31.08
2022-08-04T18:18:55.332Z,31.02
2022-08-04T18:19:55.583Z,30.94
2022-08-04T18:20:55.450Z,30.93
2022-08-04T18:22:00.625Z,30.83
2022-08-04T18:22:55.565Z,30.81
2022-08-04T18:23:55.639Z,30.75
2022-08-04T18:24:56.821Z,30.71
2022-08-04T18:25:55.735Z,30.76
2022-08-04T18:26:55.795Z,30.75
2022-08-04T18:27:55.851Z,30.71
2022-08-04T18:28:55.909Z,30.67
2022-08-04T18:30:33.544Z,30.68
2022-08-04T18:30:56.381Z,30.61
2022-08-04T18:31:56.104Z,30.49
2022-08-04T18:33:10.579Z,30.46
2022-08-04T18:33:59.037Z,30.43
2022-08-04T18:34:56.252Z,30.33
2022-08-04T18:36:34.732Z,30.27
2022-08-04T18:36:59.246Z,30.19
2022-08-04T18:38:58.605Z,30.02
2022-08-04T18:40:10.227Z,29.99
2022-08-04T18:40:56.665Z,29.92
2022-08-04T18:42:03.670Z,29.86
2022-08-04T18:42:56.753Z,29.78
2022-08-04T18:43:56.929Z,29.81
2022-08-04T18:44:57.432Z,29.65
2022-08-04T18:45:56.893Z,29.57
2022-08-04T18:46:56.936Z,29.55
2022-08-04T18:47:58.669Z,29.47
2022-08-04T18:48:57.051Z,29.44
2022-08-04T18:51:01.291Z,29.41
2022-08-04T18:51:09.674Z,29.20
2022-08-04T18:51:57.221Z,29.18
2022-08-04T18:52:57.278Z,29.06
2022-08-04T18:53:59.028Z,28.95
2022-08-04T18:54:57.413Z,28.85
2022-08-04T18:55:58.472Z,28.84
2022-08-04T18:57:25.134Z,28.82
2022-08-04T18:58:00.671Z,28.82
2022-08-04T18:58:57.621Z,28.70
2022-08-04T18:59:57.682Z,28.66
2022-08-04T19:01:00.393Z,28.60
2022-08-04T19:02:16.469Z,28.58
2022-08-04T19:02:57.849Z,28.51
2022-08-04T19:03:58.106Z,28.48
2022-08-04T19:04:57.964Z,28.43
2022-08-04T19:05:58.346Z,28.35
2022-08-04T19:06:58.072Z,28.26
2022-08-04T19:08:01.805Z,28.29
2022-08-04T19:08:58.204Z,28.16
2022-08-04T19:09:59.865Z,28.13
2022-08-04T19:10:59.654Z,28.03
2022-08-04T19:11:58.358Z,27.92
2022-08-04T19:12:58.410Z,27.86
2022-08-04T19:13:59.007Z,27.86
2022-08-04T19:15:10.589Z,27.79
2022-08-04T19:15:58.586Z,27.76
2022-08-04T19:16:58.641Z,27.71
2022-08-04T19:18:00.245Z,27.64
2022-08-04T19:18:58.771Z,27.53
2022-08-04T19:19:58.802Z,27.43
2022-08-04T19:20:58.871Z,27.43
2022-08-04T19:22:02.522Z,27.35
2022-08-04T19:24:27.417Z,27.32
2022-08-04T19:24:27.807Z,27.35
2022-08-04T19:24:59.105Z,27.17
2022-08-04T19:26:04.734Z,27.20
2022-08-04T19:26:59.201Z,27.21
2022-08-04T19:27:59.266Z,27.14
2022-08-04T19:28:59.343Z,27.11
2022-08-04T19:29:59.363Z,27.09
2022-08-04T19:30:59.418Z,27.09
2022-08-04T19:31:59.476Z,27.09
2022-08-04T19:32:59.531Z,27.09
2022-08-04T19:34:04.805Z,26.96
2022-08-04T19:34:59.635Z,26.96
2022-08-04T19:35:59.695Z,26.91
2022-08-04T19:36:59.759Z,26.96
2022-08-04T19:38:03.869Z,26.86
2022-08-04T19:38:59.963Z,26.76
2022-08-04T19:39:59.954Z,26.89
2022-08-04T19:40:59.995Z,26.87
2022-08-04T19:43:12.056Z,26.83
2022-08-04T19:44:00.139Z,26.81
2022-08-04T19:45:00.227Z,26.86
2022-08-04T19:46:00.263Z,26.74
2022-08-04T19:47:00.720Z,26.84
2022-08-04T19:48:15.940Z,26.79
2022-08-04T19:49:00.818Z,26.79
2022-08-04T19:50:04.881Z,26.68
2022-08-04T19:51:00.521Z,26.72
2022-08-04T19:52:00.613Z,26.58
2022-08-04T19:53:00.635Z,26.47
2022-08-04T19:54:03.948Z,26.43
2022-08-04T19:55:00.764Z,26.32
2022-08-04T19:56:00.830Z,26.24
2022-08-04T19:57:00.890Z,26.21
2022-08-04T19:58:00.913Z,26.09
2022-08-04T19:59:01.006Z,26.20
2022-08-04T20:00:01.014Z,26.08
2022-08-04T20:01:01.132Z,26.09
2022-08-04T20:02:01.152Z,26.05
2022-08-04T20:03:01.182Z,26.04
2022-08-04T20:04:09.751Z,26.06
2022-08-04T20:05:01.309Z,25.98
2022-08-04T20:06:01.473Z,26.05
2022-08-04T20:07:01.427Z,26.11
2022-08-04T20:08:01.464Z,26.05
2022-08-04T20:09:01.521Z,26.06
2022-08-04T20:10:04.601Z,26.05
2022-08-04T20:11:01.649Z,26.08
2022-08-04T20:12:01.676Z,26.17
2022-08-04T20:13:01.740Z,26.09
2022-08-04T20:14:02.306Z,26.06
2022-08-04T20:15:01.881Z,25.99
2022-08-04T22:02:18.801Z,25.57
2022-08-04T22:02:52.914Z,25.53
2022-08-04T22:03:57.231Z,25.50
2022-08-04T22:04:50.842Z,25.54
2022-08-04T22:05:51.714Z,25.56
2022-08-04T22:06:52.685Z,25.57
2022-08-04T22:07:58.748Z,25.62
2022-08-04T22:08:52.046Z,25.59
2022-08-04T22:10:02.218Z,25.65
2022-08-04T22:10:52.537Z,25.79
2022-08-04T22:12:07.039Z,25.86
2022-08-04T22:12:52.185Z,25.77
2022-08-04T22:14:11.617Z,25.74
2022-08-04T22:14:57.703Z,25.74
2022-08-04T22:16:03.917Z,25.75
2022-08-04T22:16:52.208Z,25.69
2022-08-04T22:17:51.688Z,25.69
2022-08-04T22:18:53.986Z,25.75
2022-08-04T22:19:56.367Z,25.75
2022-08-04T22:20:54.685Z,25.68
2022-08-04T22:21:58.783Z,25.71
2022-08-04T22:23:16.869Z,25.74
2022-08-04T22:24:13.780Z,25.64
2022-08-04T22:24:52.135Z,25.65
2022-08-04T22:25:55.850Z,25.64
2022-08-04T22:26:52.778Z,25.67
2022-08-04T22:27:55.108Z,25.68
2022-08-04T22:28:59.983Z,25.65
2022-08-04T22:29:53.139Z,25.64
2022-08-04T22:31:24.388Z,25.57
2022-08-04T22:31:56.896Z,25.62
